createdAt,value
2023-01-09T00:00:40.360Z,97162.53
2023-01-09T00:01:45.451Z,97172.59
2023-01-09T00:02:47.363Z,97163.66
2023-01-09T00:03:49.019Z,97168.41
2023-01-09T00:04:50.585Z,97164.44
2023-01-09T00:05:52.581Z,97165.50
2023-01-09T00:06:54.438Z,97171.59
2023-01-09T00:07:56.087Z,97163.94
2023-01-09T00:08:57.911Z,97165.78
2023-01-09T00:09:59.450Z,97167.06
2023-01-09T00:11:01.084Z,97171.31
2023-01-09T00:12:03.180Z,97169.22
2023-01-09T00:13:04.742Z,97166.03
2023-01-09T00:14:06.264Z,97165.78
2023-01-09T00:15:08.655Z,97166.81
2023-01-09T00:16:10.400Z,97160.22
2023-01-09T00:17:11.929Z,97157.03
2023-01-09T00:18:13.458Z,97157.03
2023-01-09T00:19:15.017Z,97159.16
2023-01-09T00:20:17.155Z,97163.91
2023-01-09T00:21:19.243Z,97152.78
2023-01-09T00:22:20.938Z,97155.69
2023-01-09T00:23:22.515Z,97159.88
2023-01-09T00:24:24.083Z,97158.00
2023-01-09T00:25:25.655Z,97159.09
2023-01-09T00:26:27.268Z,97156.44
2023-01-09T00:27:32.873Z,97156.13
2023-01-09T00:28:35.417Z,97153.50
2023-01-09T00:29:36.995Z,97153.75
2023-01-09T00:30:38.684Z,97151.09
2023-01-09T00:31:40.445Z,97153.47
2023-01-09T00:32:41.998Z,97157.94
2023-01-09T00:33:50.424Z,97149.47
2023-01-09T00:34:52.004Z,97147.84
2023-01-09T00:35:53.575Z,97154.97
2023-01-09T00:36:56.417Z,97156.31
2023-01-09T00:37:57.999Z,97150.72
2023-01-09T00:38:59.908Z,97157.88
2023-01-09T00:40:01.435Z,97155.47
2023-01-09T00:41:07.939Z,97157.88
2023-01-09T00:42:17.133Z,97153.59
2023-01-09T00:43:20.137Z,97147.28
2023-01-09T00:44:35.623Z,97152.56
2023-01-09T00:45:37.263Z,97147.81
2023-01-09T00:46:42.971Z,97147.81
2023-01-09T00:47:52.081Z,97149.94
2023-01-09T00:48:53.760Z,97156.00
2023-01-09T00:49:58.917Z,97154.69
2023-01-09T00:51:00.663Z,97148.34
2023-01-09T00:52:04.396Z,97154.19
2023-01-09T00:53:10.943Z,97152.13
2023-01-09T00:54:16.403Z,97147.94
2023-01-09T00:55:18.271Z,97150.03
2023-01-09T00:56:20.984Z,97148.97
2023-01-09T00:57:22.674Z,97143.94
2023-01-09T00:58:24.360Z,97146.56
2023-01-09T00:59:28.266Z,97147.91
2023-01-09T01:00:30.264Z,97137.34
2023-01-09T01:01:32.260Z,97138.38
2023-01-09T01:02:33.891Z,97139.41
2023-01-09T01:03:35.700Z,97137.84
2023-01-09T01:04:56.211Z,97132.59
2023-01-09T01:06:16.347Z,97137.56
2023-01-09T01:07:53.390Z,97127.25
2023-01-09T01:08:56.017Z,97133.56
2023-01-09T01:09:57.586Z,97132.50
2023-01-09T01:11:03.406Z,97130.34
2023-01-09T01:12:07.259Z,97125.59
2023-01-09T01:13:09.593Z,97124.00
2023-01-09T01:14:11.145Z,97130.38
2023-01-09T01:15:13.591Z,97123.78
2023-01-09T01:16:15.234Z,97131.97
2023-01-09T01:17:16.758Z,97129.84
2023-01-09T01:18:18.414Z,97128.81
2023-01-09T01:19:19.982Z,97124.28
2023-01-09T01:20:21.855Z,97119.31
2023-01-09T01:21:23.416Z,97123.88
2023-01-09T01:22:24.946Z,97113.00
2023-01-09T01:23:26.728Z,97117.25
2023-01-09T01:24:28.377Z,97110.38
2023-01-09T01:25:29.958Z,97120.94
2023-01-09T01:26:31.656Z,97112.72
2023-01-09T01:27:33.342Z,97110.63
2023-01-09T01:28:35.027Z,97112.75
2023-01-09T01:29:36.651Z,97109.06
2023-01-09T01:30:42.655Z,97111.13
2023-01-09T01:31:44.252Z,97109.28
2023-01-09T01:32:46.158Z,97109.53
2023-01-09T01:33:47.733Z,97101.56
2023-01-09T01:34:49.288Z,97103.41
2023-01-09T01:35:50.873Z,97113.44
2023-01-09T01:36:52.395Z,97103.88
2023-01-09T01:37:53.956Z,97105.00
2023-01-09T01:38:55.585Z,97111.84
2023-01-09T01:39:57.422Z,97105.22
2023-01-09T01:40:59.825Z,97094.88
2023-01-09T01:42:03.985Z,97105.50
2023-01-09T01:43:05.639Z,97099.69
2023-01-09T01:44:45.586Z,97103.66
2023-01-09T01:45:47.189Z,97091.22
2023-01-09T01:46:48.793Z,97098.16
2023-01-09T01:47:57.709Z,97099.72
2023-01-09T01:49:12.032Z,97093.91
2023-01-09T01:50:25.837Z,97096.03
2023-01-09T01:51:30.872Z,97088.66
2023-01-09T01:52:34.257Z,97080.72
2023-01-09T01:53:46.057Z,97076.50
2023-01-09T01:54:48.940Z,97078.59
2023-01-09T01:55:59.407Z,97078.22
2023-01-09T01:57:04.535Z,97077.41
2023-01-09T01:58:09.993Z,97075.56
2023-01-09T01:59:23.375Z,97074.47
2023-01-09T02:00:30.831Z,97074.22
2023-01-09T02:01:33.843Z,97068.13
2023-01-09T02:02:35.573Z,97073.41
2023-01-09T02:03:39.731Z,97070.25
2023-01-09T02:04:41.445Z,97070.22
2023-01-09T02:05:43.829Z,97077.34
2023-01-09T02:06:48.454Z,97072.34
2023-01-09T02:07:50.080Z,97066.06
2023-01-09T02:08:51.655Z,97066.59
2023-01-09T02:09:54.002Z,97077.94
2023-01-09T02:10:56.455Z,97067.09
2023-01-09T02:11:58.449Z,97068.44
2023-01-09T02:13:00.935Z,97068.91
2023-01-09T02:14:03.203Z,97069.16
2023-01-09T02:15:09.900Z,97076.00
2023-01-09T02:16:17.599Z,97066.53
2023-01-09T02:17:31.399Z,97064.13
2023-01-09T02:18:54.207Z,97066.53
2023-01-09T02:20:20.297Z,97067.31
2023-01-09T02:21:29.473Z,97067.00
2023-01-09T02:23:03.485Z,97062.50
2023-01-09T02:24:13.660Z,97062.00
2023-01-09T02:25:48.366Z,97059.03
2023-01-09T02:27:09.436Z,97053.22
2023-01-09T02:28:22.914Z,97056.38
2023-01-09T02:29:49.812Z,97055.56
2023-01-09T02:31:08.012Z,97048.47
2023-01-09T02:32:21.054Z,97048.47
2023-01-09T02:33:50.737Z,97051.06
2023-01-09T02:34:59.908Z,97054.25
2023-01-09T02:36:16.690Z,97053.69
2023-01-09T02:37:35.807Z,97047.63
2023-01-09T02:38:48.724Z,97055.03
2023-01-09T02:39:54.855Z,97047.91
2023-01-09T02:41:05.364Z,97052.09
2023-01-09T02:42:24.314Z,97051.59
2023-01-09T02:43:27.030Z,97051.66
2023-01-09T02:44:33.948Z,97056.94
2023-01-09T02:45:35.492Z,97046.38
2023-01-09T02:46:37.267Z,97049.53
2023-01-09T02:47:40.758Z,97055.88
2023-01-09T02:48:45.241Z,97058.53
2023-01-09T02:49:53.675Z,97062.22
2023-01-09T02:51:17.809Z,97054.25
2023-01-09T02:52:41.275Z,97048.44
2023-01-09T02:54:12.177Z,97052.16
2023-01-09T02:55:17.841Z,97051.97
2023-01-09T02:56:56.939Z,97056.41
2023-01-09T02:58:10.283Z,97062.31
2023-01-09T02:59:21.706Z,97058.66
2023-01-09T03:00:35.442Z,97056.81
2023-01-09T03:01:44.954Z,97055.59
2023-01-09T03:02:54.009Z,97059.56
2023-01-09T03:04:30.687Z,97053.53
2023-01-09T03:05:47.633Z,97047.72
2023-01-09T03:07:38.215Z,97053.53
2023-01-09T03:08:45.485Z,97063.31
2023-01-09T03:09:51.224Z,97061.22
2023-01-09T03:10:52.729Z,97060.16
2023-01-09T03:12:01.389Z,97055.38
2023-01-09T03:13:03.599Z,97061.47
2023-01-09T03:14:11.592Z,97059.38
2023-01-09T03:15:15.353Z,97063.06
2023-01-09T03:16:21.689Z,97059.38
2023-01-09T03:17:29.960Z,97064.06
2023-01-09T03:18:33.015Z,97068.81
2023-01-09T03:19:35.959Z,97063.78
2023-01-09T03:20:38.851Z,97058.75
2023-01-09T03:21:42.187Z,97055.66
2023-01-09T03:22:57.995Z,97061.69
2023-01-09T03:24:02.152Z,97057.22
2023-01-09T03:25:03.804Z,97058.28
2023-01-09T03:26:10.262Z,97058.78
2023-01-09T03:27:11.885Z,97060.09
2023-01-09T03:28:28.025Z,97058.25
2023-01-09T03:29:29.757Z,97065.03
2023-01-09T03:30:33.761Z,97056.66
2023-01-09T03:31:35.363Z,97056.41
2023-01-09T03:32:36.973Z,97060.94
2023-01-09T03:33:38.550Z,97059.34
2023-01-09T03:34:40.103Z,97057.78
2023-01-09T03:35:41.618Z,97057.78
2023-01-09T03:36:43.251Z,97060.94
2023-01-09T03:37:44.803Z,97056.72
2023-01-09T03:38:46.399Z,97057.53
2023-01-09T03:39:47.948Z,97066.50
2023-01-09T03:40:49.495Z,97070.19
2023-01-09T03:41:51.045Z,97066.25
2023-01-09T03:42:52.648Z,97065.19
2023-01-09T03:43:54.188Z,97068.06
2023-01-09T03:44:55.712Z,97058.31
2023-01-09T03:45:57.336Z,97060.94
2023-01-09T03:46:58.947Z,97064.59
2023-01-09T03:48:00.476Z,97066.44
2023-01-09T03:49:02.012Z,97060.91
2023-01-09T03:50:03.982Z,97069.63
2023-01-09T03:51:05.734Z,97066.19
2023-01-09T03:52:07.370Z,97067.00
2023-01-09T03:53:08.959Z,97062.78
2023-01-09T03:54:10.475Z,97068.34
2023-01-09T03:55:13.305Z,97070.47
2023-01-09T03:56:15.853Z,97070.47
2023-01-09T03:57:17.792Z,97064.88
2023-01-09T03:58:20.508Z,97069.34
2023-01-09T03:59:22.154Z,97071.25
2023-01-09T04:00:23.855Z,97073.59
2023-01-09T04:01:25.720Z,97077.81
2023-01-09T04:02:27.322Z,97075.72
2023-01-09T04:03:28.962Z,97071.75
2023-01-09T04:04:30.594Z,97074.41
2023-01-09T04:05:32.151Z,97072.31
2023-01-09T04:06:33.765Z,97077.31
2023-01-09T04:07:35.380Z,97072.31
2023-01-09T04:08:36.942Z,97076.25
2023-01-09T04:09:38.466Z,97075.69
2023-01-09T04:10:40.337Z,97073.34
2023-01-09T04:11:41.858Z,97079.41
2023-01-09T04:12:43.433Z,97076.22
2023-01-09T04:13:45.225Z,97074.66
2023-01-09T04:14:46.785Z,97081.50
2023-01-09T04:15:48.559Z,97082.25
2023-01-09T04:16:50.173Z,97076.41
2023-01-09T04:17:51.772Z,97079.84
2023-01-09T04:18:53.291Z,97081.31
2023-01-09T04:19:54.820Z,97080.72
2023-01-09T04:20:56.393Z,97071.78
2023-01-09T04:21:57.960Z,97086.06
2023-01-09T04:22:59.885Z,97081.84
2023-01-09T04:24:02.958Z,97084.47
2023-01-09T04:25:05.130Z,97081.03
2023-01-09T04:26:07.932Z,97082.91
2023-01-09T04:27:09.486Z,97085.53
2023-01-09T04:28:11.155Z,97087.78
2023-01-09T04:29:12.678Z,97078.03
2023-01-09T04:30:14.849Z,97079.38
2023-01-09T04:31:16.866Z,97084.63
2023-01-09T04:32:18.504Z,97084.34
2023-01-09T04:33:20.087Z,97083.31
2023-01-09T04:34:25.666Z,97092.25
2023-01-09T04:35:27.181Z,97088.81
2023-01-09T04:36:28.856Z,97093.31
2023-01-09T04:37:30.424Z,97082.50
2023-01-09T04:38:31.979Z,97088.09
2023-01-09T04:39:33.600Z,97087.28
2023-01-09T04:40:35.157Z,97079.34
2023-01-09T04:41:51.959Z,97082.25
2023-01-09T04:42:53.488Z,97086.66
2023-01-09T04:43:55.064Z,97091.56
2023-01-09T04:44:56.629Z,97082.56
2023-01-09T04:45:58.251Z,97089.97
2023-01-09T04:46:59.864Z,97089.34
2023-01-09T04:48:01.412Z,97088.06
2023-01-09T04:49:03.098Z,97091.00
2023-01-09T04:50:05.094Z,97089.00
2023-01-09T04:51:06.615Z,97083.03
2023-01-09T04:52:08.119Z,97086.28
2023-01-09T04:53:09.751Z,97090.69
2023-01-09T04:54:11.616Z,97083.28
2023-01-09T04:55:13.216Z,97081.22
2023-01-09T04:56:14.799Z,97074.13
2023-01-09T04:57:16.631Z,97073.53
2023-01-09T04:58:18.185Z,97076.13
2023-01-09T04:59:19.785Z,97076.88
2023-01-09T05:00:21.405Z,97072.34
2023-01-09T05:01:23.776Z,97075.69
2023-01-09T05:02:25.422Z,97063.13
2023-01-09T05:03:26.968Z,97071.53
2023-01-09T05:04:28.586Z,97065.75
2023-01-09T05:05:30.208Z,97072.66
2023-01-09T05:06:31.890Z,97063.78
2023-01-09T05:07:34.253Z,97062.78
2023-01-09T05:08:35.851Z,97062.25
2023-01-09T05:09:37.385Z,97059.84
2023-01-09T05:10:38.902Z,97056.69
2023-01-09T05:11:40.603Z,97055.88
2023-01-09T05:12:42.249Z,97060.25
2023-01-09T05:13:43.823Z,97055.97
2023-01-09T05:14:45.509Z,97053.41
2023-01-09T05:15:47.052Z,97053.50
2023-01-09T05:16:48.786Z,97050.63
2023-01-09T05:17:53.860Z,97064.66
2023-01-09T05:18:58.243Z,97062.84
2023-01-09T05:20:01.166Z,97073.16
2023-01-09T05:21:03.231Z,97065.56
2023-01-09T05:22:05.241Z,97063.47
2023-01-09T05:23:06.768Z,97064.53
2023-01-09T05:24:08.638Z,97064.03
2023-01-09T05:25:10.377Z,97067.69
2023-01-09T05:26:11.910Z,97058.25
2023-01-09T05:27:13.536Z,97056.94
2023-01-09T05:28:15.146Z,97047.72
2023-01-09T05:29:16.708Z,97054.97
2023-01-09T05:30:18.596Z,97055.69
2023-01-09T05:31:20.711Z,97050.91
2023-01-09T05:32:22.495Z,97044.78
2023-01-09T05:33:24.311Z,97048.50
2023-01-09T05:34:26.231Z,97052.97
2023-01-09T05:35:27.987Z,97052.72
2023-01-09T05:36:29.814Z,97054.31
2023-01-09T05:37:31.469Z,97058.56
2023-01-09T05:38:33.021Z,97054.34
2023-01-09T05:39:34.577Z,97060.59
2023-01-09T05:40:40.369Z,97062.13
2023-01-09T05:41:42.212Z,97057.41
2023-01-09T05:42:44.736Z,97057.81
2023-01-09T05:43:46.339Z,97050.91
2023-01-09T05:44:47.914Z,97055.09
2023-01-09T05:45:49.546Z,97060.88
2023-01-09T05:46:51.308Z,97063.75
2023-01-09T05:47:53.048Z,97066.94
2023-01-09T05:48:54.615Z,97068.53
2023-01-09T05:49:59.054Z,97061.94
2023-01-09T05:51:00.639Z,97070.88
2023-01-09T05:52:02.164Z,97066.63
2023-01-09T05:53:03.737Z,97066.13
2023-01-09T05:54:07.454Z,97064.00
2023-01-09T05:55:11.975Z,97069.81
2023-01-09T05:56:13.667Z,97063.00
2023-01-09T05:57:15.320Z,97060.13
2023-01-09T05:58:16.868Z,97065.63
2023-01-09T05:59:18.590Z,97063.53
2023-01-09T06:00:20.317Z,97062.72
2023-01-09T06:01:23.722Z,97064.47
2023-01-09T06:02:25.756Z,97062.59
2023-01-09T06:03:27.540Z,97067.06
2023-01-09T06:04:30.060Z,97062.59
2023-01-09T06:05:31.767Z,97066.47
2023-01-09T06:06:33.328Z,97065.66
2023-01-09T06:07:39.532Z,97063.28
2023-01-09T06:08:41.195Z,97062.72
2023-01-09T06:09:42.718Z,97064.84
2023-01-09T06:10:46.071Z,97054.31
2023-01-09T06:11:47.670Z,97055.88
2023-01-09T06:12:50.992Z,97058.47
2023-01-09T06:13:52.580Z,97051.09
2023-01-09T06:14:54.193Z,97047.38
2023-01-09T06:15:55.890Z,97049.06
2023-01-09T06:16:57.436Z,97045.44
2023-01-09T06:17:59.001Z,97042.84
2023-01-09T06:19:00.563Z,97047.41
2023-01-09T06:20:02.245Z,97046.97
2023-01-09T06:21:04.033Z,97039.91
2023-01-09T06:22:05.659Z,97035.25
2023-01-09T06:23:07.235Z,97030.59
2023-01-09T06:24:08.973Z,97031.69
2023-01-09T06:25:10.936Z,97030.97
2023-01-09T06:26:12.543Z,97037.56
2023-01-09T06:27:14.255Z,97030.72
2023-01-09T06:28:15.776Z,97032.88
2023-01-09T06:29:17.524Z,97027.09
2023-01-09T06:30:19.953Z,97030.78
2023-01-09T06:31:25.504Z,97031.88
2023-01-09T06:32:27.112Z,97032.94
2023-01-09T06:33:28.723Z,97030.81
2023-01-09T06:34:30.327Z,97021.34
2023-01-09T06:35:31.917Z,97026.63
2023-01-09T06:36:33.536Z,97023.72
2023-01-09T06:37:35.165Z,97023.72
2023-01-09T06:38:36.746Z,97022.66
2023-01-09T06:39:38.297Z,97016.09
2023-01-09T06:40:39.840Z,97024.81
2023-01-09T06:41:41.642Z,97028.22
2023-01-09T06:42:47.542Z,97029.28
2023-01-09T06:43:49.106Z,97026.38
2023-01-09T06:44:50.674Z,97028.50
2023-01-09T06:45:52.480Z,97011.31
2023-01-09T06:46:54.020Z,97008.69
2023-01-09T06:47:55.667Z,97017.69
2023-01-09T06:48:57.308Z,97011.59
2023-01-09T06:49:58.865Z,97018.44
2023-01-09T06:51:00.438Z,97017.91
2023-01-09T06:52:05.694Z,97020.53
2023-01-09T06:53:08.064Z,97028.97
2023-01-09T06:54:09.860Z,97016.47
2023-01-09T06:55:11.465Z,97024.13
2023-01-09T06:56:13.069Z,97022.25
2023-01-09T06:57:16.420Z,97033.03
2023-01-09T06:58:18.307Z,97035.34
2023-01-09T06:59:19.916Z,97029.53
2023-01-09T07:00:21.954Z,97027.34
2023-01-09T07:01:23.780Z,97022.00
2023-01-09T07:02:25.540Z,97020.94
2023-01-09T07:03:27.088Z,97021.13
2023-01-09T07:04:28.707Z,97025.69
2023-01-09T07:05:31.303Z,97020.69
2023-01-09T07:06:33.253Z,97020.38
2023-01-09T07:07:34.988Z,97014.06
2023-01-09T07:08:36.530Z,97010.34
2023-01-09T07:09:38.157Z,97006.56
2023-01-09T07:10:39.661Z,97009.50
2023-01-09T07:11:41.599Z,97005.69
2023-01-09T07:12:43.224Z,97010.19
2023-01-09T07:13:44.809Z,97020.44
2023-01-09T07:14:46.392Z,97011.44
2023-01-09T07:15:49.735Z,97012.72
2023-01-09T07:16:51.488Z,97008.97
2023-01-09T07:17:54.260Z,97006.00
2023-01-09T07:18:55.928Z,97010.63
2023-01-09T07:19:57.576Z,97018.16
2023-01-09T07:20:59.208Z,97024.31
2023-01-09T07:22:00.757Z,97017.19
2023-01-09T07:23:02.431Z,97020.03
2023-01-09T07:24:04.077Z,97023.69
2023-01-09T07:25:05.926Z,97021.88
2023-01-09T07:26:07.502Z,97015.97
2023-01-09T07:27:09.147Z,97030.25
2023-01-09T07:28:11.621Z,97014.84
2023-01-09T07:29:13.316Z,97018.19
2023-01-09T07:30:15.254Z,97025.81
2023-01-09T07:31:16.892Z,97019.13
2023-01-09T07:32:18.612Z,97021.53
2023-01-09T07:33:20.187Z,97023.97
2023-01-09T07:34:21.732Z,97018.91
2023-01-09T07:35:23.280Z,97016.94
2023-01-09T07:36:24.999Z,97017.84
2023-01-09T07:37:26.586Z,97015.06
2023-01-09T07:38:28.223Z,97017.97
2023-01-09T07:39:29.898Z,97021.63
2023-01-09T07:40:31.504Z,97022.47
2023-01-09T07:41:33.052Z,97017.09
2023-01-09T07:42:34.589Z,97016.31
2023-01-09T07:43:38.006Z,97018.19
2023-01-09T07:44:39.646Z,97026.47
2023-01-09T07:45:41.206Z,97026.34
2023-01-09T07:46:42.864Z,97020.38
2023-01-09T07:47:44.441Z,97016.38
2023-01-09T07:48:46.004Z,97015.38
2023-01-09T07:49:47.605Z,97014.34
2023-01-09T07:50:49.164Z,97009.69
2023-01-09T07:51:50.781Z,97013.06
2023-01-09T07:52:52.382Z,97006.13
2023-01-09T07:53:54.182Z,97003.59
2023-01-09T07:54:55.742Z,97010.59
2023-01-09T07:55:57.360Z,97008.53
2023-01-09T07:56:58.945Z,97009.34
2023-01-09T07:58:00.467Z,97016.19
2023-01-09T07:59:02.023Z,97020.16
2023-01-09T08:00:06.842Z,97029.81
2023-01-09T08:01:08.404Z,97036.56
2023-01-09T08:02:10.223Z,97030.66
2023-01-09T08:03:11.837Z,97033.03
2023-01-09T08:04:13.511Z,97034.72
2023-01-09T08:05:17.041Z,97034.06
2023-01-09T08:06:18.663Z,97034.13
2023-01-09T08:07:20.326Z,97036.97
2023-01-09T08:08:22.807Z,97038.53
2023-01-09T08:09:24.438Z,97039.53
2023-01-09T08:10:26.396Z,97037.97
2023-01-09T08:11:28.244Z,97036.44
2023-01-09T08:12:29.844Z,97046.09
2023-01-09T08:13:31.500Z,97039.13
2023-01-09T08:14:33.139Z,97040.22
2023-01-09T08:15:34.928Z,97035.41
2023-01-09T08:16:36.658Z,97037.09
2023-01-09T08:17:42.102Z,97036.09
2023-01-09T08:18:44.269Z,97027.16
2023-01-09T08:19:45.785Z,97033.00
2023-01-09T08:20:50.497Z,97023.53
2023-01-09T08:21:52.002Z,97038.47
2023-01-09T08:22:54.397Z,97045.56
2023-01-09T08:23:55.939Z,97049.50
2023-01-09T08:24:57.559Z,97050.88
2023-01-09T08:25:59.903Z,97044.41
2023-01-09T08:27:01.505Z,97043.63
2023-01-09T08:28:03.036Z,97041.19
2023-01-09T08:29:04.688Z,97040.91
2023-01-09T08:30:07.075Z,97037.53
2023-01-09T08:31:08.705Z,97042.78
2023-01-09T08:32:10.303Z,97034.69
2023-01-09T08:33:11.838Z,97035.88
2023-01-09T08:34:13.422Z,97033.41
2023-01-09T08:35:14.997Z,97036.56
2023-01-09T08:36:16.680Z,97028.69
2023-01-09T08:37:18.261Z,97031.88
2023-01-09T08:38:21.978Z,97032.69
2023-01-09T08:39:23.500Z,97023.09
2023-01-09T08:40:25.208Z,97023.19
2023-01-09T08:41:45.310Z,97026.06
2023-01-09T08:43:25.085Z,97018.19
2023-01-09T08:44:45.137Z,97015.06
2023-01-09T08:46:06.341Z,97008.16
2023-01-09T08:47:08.313Z,97005.56
2023-01-09T08:48:10.512Z,97009.13
2023-01-09T08:49:12.063Z,97005.28
2023-01-09T08:50:13.888Z,97010.50
2023-01-09T08:51:15.513Z,97007.94
2023-01-09T08:52:17.061Z,97012.09
2023-01-09T08:53:18.623Z,97012.56
2023-01-09T08:54:20.178Z,97013.38
2023-01-09T08:55:21.793Z,97008.06
2023-01-09T08:56:23.297Z,97013.03
2023-01-09T08:57:25.196Z,97009.22
2023-01-09T08:58:26.979Z,97013.50
2023-01-09T08:59:28.635Z,97013.50
2023-01-09T09:00:30.274Z,97010.44
2023-01-09T09:01:32.462Z,96997.63
2023-01-09T09:02:34.141Z,96988.91
2023-01-09T09:03:35.735Z,96986.59
2023-01-09T09:04:37.287Z,96984.41
2023-01-09T09:05:38.824Z,96983.59
2023-01-09T09:06:40.555Z,96982.81
2023-01-09T09:07:42.903Z,96988.84
2023-01-09T09:08:44.576Z,96987.50
2023-01-09T09:09:46.128Z,96988.25
2023-01-09T09:10:47.704Z,96979.50
2023-01-09T09:11:49.264Z,96983.44
2023-01-09T09:12:52.717Z,96982.88
2023-01-09T09:13:54.351Z,96986.81
2023-01-09T09:15:16.373Z,96981.66
2023-01-09T09:16:17.974Z,96980.88
2023-01-09T09:17:19.608Z,96974.72
2023-01-09T09:18:21.227Z,96967.66
2023-01-09T09:19:22.911Z,96972.72
2023-01-09T09:20:26.911Z,96978.72
2023-01-09T09:21:28.430Z,96971.03
2023-01-09T09:22:30.924Z,96974.69
2023-01-09T09:23:32.512Z,96963.63
2023-01-09T09:24:34.102Z,96966.59
2023-01-09T09:25:38.372Z,96958.88
2023-01-09T09:26:40.109Z,96954.91
2023-01-09T09:27:42.230Z,96954.47
2023-01-09T09:28:43.802Z,96948.50
2023-01-09T09:29:45.487Z,96946.13
2023-01-09T09:30:47.095Z,96947.25
2023-01-09T09:31:48.742Z,96947.91
2023-01-09T09:32:50.351Z,96945.44
2023-01-09T09:33:51.919Z,96943.56
2023-01-09T09:34:53.625Z,96947.00
2023-01-09T09:35:55.211Z,96935.38
2023-01-09T09:36:56.809Z,96932.38
2023-01-09T09:38:05.381Z,96928.47
2023-01-09T09:39:08.442Z,96924.38
2023-01-09T09:40:20.163Z,96922.84
2023-01-09T09:41:58.780Z,96915.88
2023-01-09T09:43:25.133Z,96914.34
2023-01-09T09:44:53.963Z,96904.44
2023-01-09T09:46:20.247Z,96894.72
2023-01-09T09:47:43.312Z,96880.03
2023-01-09T09:49:07.159Z,96874.97
2023-01-09T09:50:40.159Z,96873.59
2023-01-09T09:51:56.448Z,96865.44
2023-01-09T09:53:09.944Z,96866.66
2023-01-09T09:54:42.735Z,96856.06
2023-01-09T09:55:48.304Z,96847.06
2023-01-09T09:56:53.088Z,96834.00
2023-01-09T09:57:56.477Z,96834.78
2023-01-09T09:59:30.936Z,96825.91
2023-01-09T10:00:33.196Z,96811.41
2023-01-09T10:01:42.030Z,96816.56
2023-01-09T10:02:52.202Z,96807.22
2023-01-09T10:03:58.320Z,96800.44
2023-01-09T10:05:22.224Z,96804.38
2023-01-09T10:06:52.772Z,96793.00
2023-01-09T10:08:01.315Z,96793.78
2023-01-09T10:09:29.211Z,96783.19
2023-01-09T10:10:44.063Z,96774.56
2023-01-09T10:11:51.370Z,96777.53
2023-01-09T10:12:58.855Z,96766.69
2023-01-09T10:14:16.013Z,96760.25
2023-01-09T10:15:36.557Z,96755.78
2023-01-09T10:17:12.141Z,96752.66
2023-01-09T10:18:32.939Z,96742.06
2023-01-09T10:20:02.868Z,96733.03
2023-01-09T10:21:23.915Z,96737.72
2023-01-09T10:22:40.782Z,96729.34
2023-01-09T10:24:15.806Z,96731.91
2023-01-09T10:25:42.740Z,96733.25
2023-01-09T10:26:50.968Z,96725.28
2023-01-09T10:28:07.260Z,96723.16
2023-01-09T10:29:19.895Z,96723.81
2023-01-09T10:30:32.084Z,96717.56
2023-01-09T10:32:15.136Z,96715.91
2023-01-09T10:33:35.068Z,96721.03
2023-01-09T10:34:57.801Z,96710.22
2023-01-09T10:36:10.583Z,96708.31
2023-01-09T10:37:15.675Z,96702.59
2023-01-09T10:38:22.523Z,96713.13
2023-01-09T10:39:41.131Z,96708.78
2023-01-09T10:40:50.940Z,96706.31
2023-01-09T10:42:03.137Z,96701.19
2023-01-09T10:43:15.180Z,96708.22
2023-01-09T10:44:24.320Z,96697.72
2023-01-09T10:45:42.587Z,96696.59
2023-01-09T10:46:53.160Z,96697.91
2023-01-09T10:48:04.886Z,96697.47
2023-01-09T10:49:13.581Z,96687.63
2023-01-09T10:50:18.365Z,96687.41
2023-01-09T10:51:24.168Z,96688.53
2023-01-09T10:52:33.360Z,96683.16
2023-01-09T10:53:39.430Z,96674.84
2023-01-09T10:54:51.004Z,96689.84
2023-01-09T10:55:56.098Z,96674.41
2023-01-09T10:57:02.399Z,96679.34
2023-01-09T10:58:12.114Z,96680.13
2023-01-09T10:59:13.677Z,96682.81
2023-01-09T11:00:18.782Z,96685.13
2023-01-09T11:01:33.416Z,96682.59
2023-01-09T11:02:36.099Z,96675.97
2023-01-09T11:03:39.035Z,96675.75
2023-01-09T11:04:40.733Z,96664.59
2023-01-09T11:05:42.724Z,96660.75
2023-01-09T11:06:49.700Z,96663.88
2023-01-09T11:07:59.504Z,96669.34
2023-01-09T11:09:01.967Z,96660.09
2023-01-09T11:10:11.781Z,96661.84
2023-01-09T11:11:31.874Z,96656.00
2023-01-09T11:12:35.193Z,96657.78
2023-01-09T11:13:41.180Z,96659.13
2023-01-09T11:14:42.766Z,96652.69
2023-01-09T11:15:45.240Z,96656.72
2023-01-09T11:17:01.407Z,96649.31
2023-01-09T11:18:26.210Z,96639.72
2023-01-09T11:19:28.522Z,96627.50
2023-01-09T11:20:30.393Z,96625.34
2023-01-09T11:21:35.698Z,96632.06
2023-01-09T11:22:51.269Z,96631.91
2023-01-09T11:23:53.624Z,96631.19
2023-01-09T11:25:03.027Z,96626.56
2023-01-09T11:26:04.732Z,96627.34
2023-01-09T11:27:23.588Z,96617.03
2023-01-09T11:28:25.732Z,96625.56
2023-01-09T11:29:27.580Z,96618.47
2023-01-09T11:30:37.026Z,96623.03
2023-01-09T11:31:42.321Z,96611.19
2023-01-09T11:32:46.195Z,96612.91
2023-01-09T11:33:50.253Z,96615.03
2023-01-09T11:34:51.908Z,96618.50
2023-01-09T11:36:14.480Z,96619.84
2023-01-09T11:37:26.166Z,96606.47
2023-01-09T11:38:28.294Z,96617.38
2023-01-09T11:39:34.789Z,96602.72
2023-01-09T11:41:12.005Z,96608.19
2023-01-09T11:42:42.079Z,96607.03
2023-01-09T11:43:48.139Z,96607.66
2023-01-09T11:44:58.903Z,96599.06
2023-01-09T11:46:06.621Z,96597.78
2023-01-09T11:47:35.928Z,96593.72
2023-01-09T11:48:59.433Z,96596.72
2023-01-09T11:50:20.890Z,96599.50
2023-01-09T11:51:33.851Z,96597.50
2023-01-09T11:52:35.425Z,96591.28
2023-01-09T11:54:12.804Z,96592.84
2023-01-09T11:55:19.478Z,96587.47
2023-01-09T11:56:21.224Z,96580.00
2023-01-09T11:57:24.965Z,96586.16
2023-01-09T11:58:34.037Z,96581.91
2023-01-09T11:59:35.658Z,96584.34
2023-01-09T12:01:14.388Z,96573.78
2023-01-09T12:02:53.210Z,96583.03
2023-01-09T12:04:18.034Z,96591.06
2023-01-09T12:05:51.007Z,96585.28
2023-01-09T12:07:16.599Z,96576.53
2023-01-09T12:08:42.188Z,96583.63
2023-01-09T12:09:50.098Z,96576.81
2023-01-09T12:11:12.434Z,96570.75
2023-01-09T12:12:41.703Z,96586.19
2023-01-09T12:14:18.225Z,96578.97
2023-01-09T12:15:19.819Z,96578.75
2023-01-09T12:16:21.425Z,96580.59
2023-01-09T12:17:35.589Z,96576.81
2023-01-09T12:18:57.543Z,96579.75
2023-01-09T12:20:14.206Z,96576.66
2023-01-09T12:21:35.211Z,96578.22
2023-01-09T12:22:58.636Z,96573.28
2023-01-09T12:24:18.569Z,96567.66
2023-01-09T12:25:44.504Z,96576.16
2023-01-09T12:27:24.352Z,96576.81
2023-01-09T12:28:54.802Z,96574.50
2023-01-09T12:30:02.121Z,96577.44
2023-01-09T12:31:43.284Z,96575.78
2023-01-09T12:33:00.505Z,96567.47
2023-01-09T12:34:27.639Z,96567.03
2023-01-09T12:35:45.047Z,96560.09
2023-01-09T12:37:23.717Z,96566.41
2023-01-09T12:38:54.520Z,96562.06
2023-01-09T12:40:41.403Z,96550.56
2023-01-09T12:42:04.639Z,96560.16
2023-01-09T12:43:12.186Z,96553.31
2023-01-09T12:44:34.555Z,96557.25
2023-01-09T12:45:40.232Z,96545.84
2023-01-09T12:47:06.815Z,96543.88
2023-01-09T12:48:44.996Z,96552.16
2023-01-09T12:50:22.301Z,96555.09
2023-01-09T12:51:41.980Z,96548.16
2023-01-09T12:53:12.562Z,96556.34
2023-01-09T12:54:32.626Z,96550.63
2023-01-09T12:55:39.821Z,96558.91
2023-01-09T12:56:48.806Z,96548.41
2023-01-09T12:57:55.096Z,96542.38
2023-01-09T12:59:30.783Z,96548.53
2023-01-09T13:00:42.973Z,96540.91
2023-01-09T13:01:50.051Z,96531.66
2023-01-09T13:03:11.923Z,96533.22